Time;durP1;ratioP1;P1;durP2;ratioP2;P2;SDS_P1;SDS_P2;PMS_P1;PMS_P2;Temp;Humidity;BMP_temperature;BMP_pressure;BME280_temperature;BME280_humidity;BME280_pressure;Samples;Min_cycle;Max_cycle;Signal;HPM_P1;HPM_P2
2022/10/30 00:00:16;;;;;;;10.38;4.03;;;13.80;99.90;;;;;;4938822;29;20043;-67
2022/10/30 00:02:41;;;;;;;9.75;3.50;;;13.70;99.90;;;;;;4955855;29;20451;-67
2022/10/30 00:05:08;;;;;;;9.88;3.72;;;13.80;99.90;;;;;;4938662;29;20078;-67
2022/10/30 00:07:34;;;;;;;8.18;4.22;;;13.80;99.90;;;;;;4956073;29;20118;-67
2022/10/30 00:10:00;;;;;;;11.65;3.88;;;13.80;99.90;;;;;;4956027;29;20126;-67
2022/10/30 00:12:25;;;;;;;6.97;3.65;;;13.90;99.90;;;;;;4956015;29;20039;-67
2022/10/30 00:14:51;;;;;;;6.57;4.20;;;13.90;99.90;;;;;;4956011;29;20047;-68
2022/10/30 00:17:16;;;;;;;10.27;3.53;;;14.00;99.90;;;;;;4922977;29;20126;-66
2022/10/30 00:19:42;;;;;;;7.47;3.53;;;14.00;99.90;;;;;;4954899;28;20090;-67
2022/10/30 00:22:08;;;;;;;8.68;3.75;;;14.10;99.90;;;;;;4922692;29;20058;-67
2022/10/30 00:24:34;;;;;;;7.05;3.75;;;14.10;99.90;;;;;;4938422;29;20042;-67
2022/10/30 00:26:59;;;;;;;6.40;3.25;;;14.20;99.90;;;;;;4955517;29;20122;-67
2022/10/30 00:29:25;;;;;;;9.90;3.60;;;14.20;99.90;;;;;;4955687;29;20039;-67
2022/10/30 00:31:52;;;;;;;12.45;4.43;;;14.20;99.90;;;;;;4955662;29;20458;-67
2022/10/30 00:34:18;;;;;;;6.45;3.65;;;14.20;99.90;;;;;;4922286;28;20039;-66
2022/10/30 00:36:44;;;;;;;6.22;3.60;;;14.30;99.90;;;;;;4955661;29;20545;-71
2022/10/30 00:39:10;;;;;;;7.35;3.95;;;14.30;99.90;;;;;;4955652;29;20035;-67
2022/10/30 00:41:38;;;;;;;9.60;4.47;;;14.30;99.90;;;;;;4938448;29;20123;-67
2022/10/30 00:44:31;;;;;;;6.65;3.42;;;14.30;99.90;;;;;;4955519;29;20047;-67
2022/10/30 00:46:58;;;;;;;6.30;3.85;;;14.30;99.90;;;;;;4945453;29;20280;-68
2022/10/30 00:49:24;;;;;;;8.05;3.60;;;14.30;99.90;;;;;;4955445;29;20078;-67
2022/10/30 00:51:53;;;;;;;10.68;4.57;;;14.30;99.90;;;;;;4955502;29;20031;-67
2022/10/30 00:54:20;;;;;;;4.43;2.95;;;14.30;99.90;;;;;;4955446;29;20044;-67
2022/10/30 00:56:48;;;;;;;8.43;3.67;;;14.30;99.90;;;;;;4955341;29;20074;-67
2022/10/30 00:59:23;;;;;;;6.53;3.72;;;14.30;99.90;;;;;;4938238;29;20047;-67
2022/10/30 01:01:49;;;;;;;9.32;3.08;;;14.40;99.90;;;;;;4955120;29;20047;-67
2022/10/30 01:04:16;;;;;;;6.40;3.42;;;14.40;99.90;;;;;;4955082;29;20053;-68
2022/10/30 01:06:47;;;;;;;7.30;3.40;;;14.40;99.90;;;;;;4938170;29;20090;-67
2022/10/30 01:09:13;;;;;;;;;;;14.40;99.90;;;;;;4955495;29;20043;-66
2022/10/30 01:11:38;;;;;;;9.13;4.15;;;14.40;99.90;;;;;;4955332;29;19919;-66
2022/10/30 01:14:07;;;;;;;7.07;3.60;;;14.40;99.90;;;;;;4955255;29;20444;-67
2022/10/30 01:17:05;;;;;;;8.15;3.83;;;14.40;99.90;;;;;;4955288;29;20443;-67
2022/10/30 01:19:57;;;;;;;5.63;3.53;;;14.50;99.90;;;;;;4954962;29;20041;-67
2022/10/30 01:22:39;;;;;;;7.05;3.67;;;14.40;99.90;;;;;;4954440;29;20082;-66
2022/10/30 01:25:37;;;;;;;6.93;2.97;;;14.40;99.90;;;;;;4955163;29;20426;-67
2022/10/30 01:28:33;;;;;;;9.27;3.40;;;14.40;99.90;;;;;;4912334;29;20054;-67
2022/10/30 01:31:15;;;;;;;8.13;3.75;;;14.40;99.90;;;;;;4940102;29;20452;-67
2022/10/30 01:34:16;;;;;;;9.60;3.40;;;14.40;99.90;;;;;;4958933;29;20044;-67
2022/10/30 01:36:44;;;;;;;;;;;14.40;99.90;;;;;;4958821;29;20055;-67
2022/10/30 01:39:15;;;;;;;7.13;3.03;;;14.40;99.90;;;;;;4958813;29;19969;-67
2022/10/30 01:41:40;;;;;;;5.97;2.90;;;14.30;99.90;;;;;;4958739;29;20050;-67
2022/10/30 01:44:16;;;;;;;13.70;3.55;;;14.30;99.90;;;;;;4958998;29;20391;-66
2022/10/30 01:47:13;;;;;;;10.15;3.65;;;14.20;99.90;;;;;;4958677;29;20047;-67
2022/10/30 01:49:50;;;;;;;11.75;3.65;;;14.10;99.90;;;;;;4958529;29;20123;-70
2022/10/30 01:52:42;;;;;;;10.90;3.65;;;14.10;99.90;;;;;;4958549;29;20035;-68
2022/10/30 01:55:41;;;;;;;4.82;3.03;;;14.00;99.90;;;;;;4918792;29;20110;-67
2022/10/30 01:58:33;;;;;;;8.25;4.28;;;14.00;99.90;;;;;;4958473;29;20035;-67
2022/10/30 02:00:59;;;;;;;11.05;3.72;;;13.90;99.90;;;;;;4958396;29;20035;-67
2022/10/30 02:03:26;;;;;;;7.55;3.53;;;14.00;99.90;;;;;;4958369;29;20118;-66
2022/10/30 02:05:53;;;;;;;8.98;3.72;;;13.90;99.90;;;;;;4957983;29;20055;-67
2022/10/30 02:08:20;;;;;;;6.72;3.63;;;13.80;99.90;;;;;;4958218;29;20038;-68
2022/10/30 02:10:48;;;;;;;6.78;3.65;;;13.80;99.90;;;;;;4958252;29;20035;-67
2022/10/30 02:13:14;;;;;;;8.05;3.75;;;13.90;99.90;;;;;;4957912;29;20047;-67
2022/10/30 02:15:42;;;;;;;7.85;3.50;;;13.70;99.90;;;;;;4958223;29;20118;-66
2022/10/30 02:18:08;;;;;;;8.45;3.38;;;13.80;99.90;;;;;;4957817;29;20043;-67
2022/10/30 02:20:35;;;;;;;11.18;3.97;;;13.80;99.90;;;;;;4958020;29;20043;-68
2022/10/30 02:23:00;;;;;;;7.25;3.85;;;13.80;99.90;;;;;;4958011;29;20087;-67
2022/10/30 02:25:26;;;;;;;5.50;3.42;;;13.80;99.90;;;;;;4958016;29;20534;-67
2022/10/30 02:27:52;;;;;;;7.32;3.60;;;13.80;99.90;;;;;;4957901;29;20049;-67
2022/10/30 02:30:17;;;;;;;8.07;3.53;;;13.70;99.90;;;;;;4957805;29;20047;-66
2022/10/30 02:32:43;;;;;;;5.90;3.58;;;13.70;99.90;;;;;;4957845;29;20058;-66
2022/10/30 02:35:09;;;;;;;8.30;4.40;;;13.70;99.90;;;;;;4957566;28;20055;-67
2022/10/30 02:37:35;;;;;;;11.75;3.60;;;13.70;99.90;;;;;;4957758;29;20040;-67
2022/10/30 02:40:04;;;;;;;7.15;3.30;;;13.70;99.90;;;;;;4957724;29;20066;-67
2022/10/30 02:42:30;;;;;;;8.98;3.85;;;13.70;99.90;;;;;;4939636;29;20074;-67
2022/10/30 02:44:56;;;;;;;10.45;3.90;;;13.60;99.90;;;;;;4957591;29;20130;-69
2022/10/30 02:47:21;;;;;;;10.45;3.60;;;13.60;99.90;;;;;;4957298;29;20495;-67
2022/10/30 02:49:47;;;;;;;7.60;3.78;;;13.60;99.90;;;;;;4957184;29;20047;-66
2022/10/30 02:52:13;;;;;;;6.78;3.80;;;13.60;99.90;;;;;;4957444;29;20031;-66
2022/10/30 02:54:38;;;;;;;10.32;3.85;;;13.60;99.90;;;;;;4957449;29;20038;-66
2022/10/30 02:57:04;;;;;;;7.32;3.15;;;13.60;99.90;;;;;;4940294;29;20420;-66
2022/10/30 02:59:30;;;;;;;7.15;3.67;;;13.60;99.90;;;;;;4939971;29;20487;-67
2022/10/30 03:01:55;;;;;;;9.90;3.80;;;13.50;99.90;;;;;;4957391;29;20043;-66
2022/10/30 03:04:21;;;;;;;7.75;3.97;;;13.50;99.90;;;;;;4940160;29;20039;-67
2022/10/30 03:06:46;;;;;;;10.05;3.50;;;13.50;99.90;;;;;;4957205;29;20122;-67
2022/10/30 03:09:12;;;;;;;7.88;3.55;;;13.50;99.90;;;;;;4957158;29;20043;-68
2022/10/30 03:11:38;;;;;;;10.60;4.18;;;13.40;99.90;;;;;;4957152;29;20036;-66
2022/10/30 03:14:04;;;;;;;10.27;4.43;;;13.40;99.90;;;;;;4957076;29;20047;-67
2022/10/30 03:16:30;;;;;;;7.18;3.72;;;13.30;99.90;;;;;;4957062;29;20043;-67
2022/10/30 03:18:58;;;;;;;10.30;4.30;;;13.30;99.90;;;;;;4956682;29;20054;-67
2022/10/30 03:21:25;;;;;;;8.18;3.97;;;13.30;99.90;;;;;;4956943;29;20121;-67
2022/10/30 03:23:52;;;;;;;7.65;3.97;;;13.30;99.90;;;;;;4956823;29;20483;-67
2022/10/30 03:26:18;;;;;;;8.20;3.88;;;13.20;99.90;;;;;;4956923;29;20053;-67
2022/10/30 03:28:44;;;;;;;7.03;3.97;;;13.30;99.90;;;;;;4956728;29;20047;-67
2022/10/30 03:31:13;;;;;;;8.60;4.15;;;13.20;99.90;;;;;;4956807;29;20070;-67
2022/10/30 03:33:40;;;;;;;7.75;4.22;;;13.20;99.90;;;;;;4956439;29;20043;-67
2022/10/30 03:36:07;;;;;;;9.57;3.97;;;13.10;99.90;;;;;;4956253;29;20059;-67
2022/10/30 03:38:33;;;;;;;9.25;3.55;;;13.10;99.90;;;;;;4956679;29;20047;-67
2022/10/30 03:40:59;;;;;;;4.82;3.55;;;13.20;99.90;;;;;;4956479;29;20032;-66
2022/10/30 03:43:26;;;;;;;7.30;4.18;;;13.10;99.90;;;;;;4956217;29;20066;-68
2022/10/30 03:45:53;;;;;;;6.85;4.15;;;13.10;99.90;;;;;;4956172;29;20049;-67
2022/10/30 03:48:22;;;;;;;8.10;3.90;;;13.20;99.90;;;;;;4956503;29;20043;-67
2022/10/30 03:50:48;;;;;;;8.13;3.95;;;13.20;99.90;;;;;;4956337;29;20402;-66
2022/10/30 03:53:14;;;;;;;7.28;3.63;;;13.10;99.90;;;;;;4956318;28;20110;-67
2022/10/30 03:55:40;;;;;;;8.00;3.75;;;13.10;99.90;;;;;;4956337;29;20043;-68
2022/10/30 03:58:06;;;;;;;11.07;5.78;;;13.10;99.90;;;;;;4956302;29;20555;-67
2022/10/30 04:00:33;;;;;;;9.65;4.38;;;13.10;99.90;;;;;;4956228;29;20514;-68
2022/10/30 04:02:59;;;;;;;10.90;4.38;;;13.20;99.90;;;;;;4955898;29;20047;-67
2022/10/30 04:05:27;;;;;;;11.95;4.38;;;13.20;99.90;;;;;;4955849;29;20122;-67
2022/10/30 04:08:01;;;;;;;6.15;3.97;;;13.20;99.90;;;;;;4938947;29;20043;-67
2022/10/30 04:10:27;;;;;;;11.63;3.88;;;13.30;99.90;;;;;;4955802;29;20051;-67
2022/10/30 04:13:00;;;;;;;9.13;4.03;;;13.30;99.90;;;;;;4938610;29;20051;-67
2022/10/30 04:15:25;;;;;;;7.03;3.90;;;13.20;99.90;;;;;;4956008;29;20043;-67
2022/10/30 04:17:51;;;;;;;7.80;4.32;;;13.30;99.90;;;;;;4938485;29;20049;-67
2022/10/30 04:20:18;;;;;;;10.00;3.97;;;13.20;99.90;;;;;;4955636;29;20452;-67
2022/10/30 04:22:44;;;;;;;10.57;4.82;;;13.20;99.90;;;;;;4955820;29;20106;-66
2022/10/30 04:25:10;;;;;;;7.40;4.15;;;13.20;99.90;;;;;;4955815;29;20103;-67
2022/10/30 04:27:42;;;;;;;12.95;4.85;;;13.20;99.90;;;;;;4955891;29;20478;-67
2022/10/30 04:30:12;;;;;;;7.80;4.28;;;13.20;99.90;;;;;;4955713;29;20039;-67
2022/10/30 04:32:55;;;;;;;6.03;3.90;;;13.20;99.90;;;;;;4955411;29;20110;-67
2022/10/30 04:35:28;;;;;;;8.70;4.15;;;13.20;99.90;;;;;;4955474;29;20062;-68
2022/10/30 04:38:00;;;;;;;6.57;4.38;;;13.20;99.90;;;;;;4955606;29;20126;-66
2022/10/30 04:40:28;;;;;;;7.28;3.90;;;13.20;99.90;;;;;;4955586;29;20522;-67
2022/10/30 04:42:54;;;;;;;5.53;3.55;;;13.40;99.90;;;;;;4955594;29;20114;-66
2022/10/30 04:45:20;;;;;;;11.48;4.15;;;13.20;99.90;;;;;;4938499;29;20490;-67
2022/10/30 04:47:46;;;;;;;9.95;4.70;;;13.20;99.90;;;;;;4955175;29;20109;-67
2022/10/30 04:50:13;;;;;;;9.70;4.03;;;13.20;99.90;;;;;;4955509;29;20051;-67
2022/10/30 04:52:38;;;;;;;15.82;4.50;;;13.10;99.90;;;;;;4955509;29;20039;-66
2022/10/30 04:55:05;;;;;;;7.38;3.97;;;13.10;99.90;;;;;;4955474;29;20027;-67
2022/10/30 04:57:31;;;;;;;8.75;4.85;;;13.10;99.90;;;;;;4955130;29;20046;-66
2022/10/30 04:59:58;;;;;;;11.85;4.22;;;13.10;99.90;;;;;;4955390;29;20542;-66
2022/10/30 05:02:23;;;;;;;12.50;4.43;;;13.10;99.90;;;;;;4954907;29;20406;-66
2022/10/30 05:04:49;;;;;;;7.07;4.03;;;13.00;99.90;;;;;;4956209;28;20130;-66
2022/10/30 05:07:16;;;;;;;12.02;5.60;;;13.10;99.90;;;;;;4961722;28;20069;-67
2022/10/30 05:09:42;;;;;;;7.90;3.72;;;13.00;99.90;;;;;;4961680;29;20118;-67
2022/10/30 05:12:08;;;;;;;8.95;4.13;;;13.00;99.90;;;;;;4961334;28;20118;-67
2022/10/30 05:14:34;;;;;;;10.32;5.70;;;13.00;99.90;;;;;;4961672;28;20595;-67
2022/10/30 05:17:00;;;;;;;7.30;4.35;;;13.00;99.90;;;;;;4961386;28;20129;-67
2022/10/30 05:19:25;;;;;;;10.05;4.25;;;13.00;99.90;;;;;;4961660;29;20047;-67
2022/10/30 05:21:51;;;;;;;8.95;4.63;;;13.00;99.90;;;;;;4961549;28;20039;-69
2022/10/30 05:24:17;;;;;;;8.65;3.78;;;13.00;99.90;;;;;;4961592;28;20395;-66
2022/10/30 05:26:43;;;;;;;8.18;4.43;;;13.00;99.90;;;;;;4961171;28;20057;-67
2022/10/30 05:29:09;;;;;;;10.38;4.55;;;13.00;99.90;;;;;;4961108;28;20046;-67
2022/10/30 05:31:34;;;;;;;9.25;4.22;;;12.90;99.90;;;;;;4961527;28;20039;-67
2022/10/30 05:34:00;;;;;;;8.48;4.57;;;12.90;99.90;;;;;;4944211;29;20051;-68
2022/10/30 05:36:26;;;;;;;10.50;4.70;;;13.30;99.90;;;;;;4961040;28;20054;-66
2022/10/30 05:38:51;;;;;;;5.53;3.60;;;13.40;99.90;;;;;;4961224;29;20400;-67
2022/10/30 05:41:18;;;;;;;6.60;3.83;;;;;;;;;;4961470;29;20043;-67
2022/10/30 05:43:43;;;;;;;9.10;3.97;;;12.90;99.90;;;;;;4961473;28;20101;-67
2022/10/30 05:46:09;;;;;;;8.15;4.18;;;12.90;99.90;;;;;;4961445;28;20071;-67
2022/10/30 05:48:34;;;;;;;7.53;4.35;;;12.90;99.90;;;;;;4961257;28;20406;-67
2022/10/30 05:51:01;;;;;;;7.90;4.03;;;12.90;99.90;;;;;;4961313;28;20047;-67
2022/10/30 05:53:26;;;;;;;8.15;4.22;;;12.90;99.90;;;;;;4961334;29;20063;-68
2022/10/30 05:55:58;;;;;;;12.95;5.05;;;12.90;99.90;;;;;;4943859;29;20039;-67
2022/10/30 05:58:24;;;;;;;9.80;4.88;;;12.90;99.90;;;;;;4961102;29;20039;-67
2022/10/30 06:00:50;;;;;;;7.05;4.38;;;12.90;99.90;;;;;;4960962;29;20039;-71
2022/10/30 06:03:16;;;;;;;7.97;4.22;;;12.90;99.90;;;;;;4961233;28;20186;-66
2022/10/30 06:05:44;;;;;;;8.50;4.50;;;12.90;99.90;;;;;;4960971;29;20133;-66
2022/10/30 06:08:10;;;;;;;6.65;4.22;;;12.90;99.90;;;;;;4961192;29;20066;-67
2022/10/30 06:10:36;;;;;;;11.13;4.78;;;12.90;99.90;;;;;;4961150;29;20075;-66
2022/10/30 06:13:05;;;;;;;9.80;4.43;;;12.90;99.90;;;;;;4943681;29;20043;-67
2022/10/30 06:15:31;;;;;;;5.95;3.47;;;12.90;99.90;;;;;;4943938;29;20506;-66
2022/10/30 06:17:58;;;;;;;11.10;5.07;;;12.80;99.90;;;;;;4956876;28;20047;-66
2022/10/30 06:20:26;;;;;;;6.38;4.40;;;12.80;99.90;;;;;;4958093;29;20178;-67
2022/10/30 06:22:57;;;;;;;7.88;3.88;;;12.80;99.90;;;;;;4940472;29;20209;-67
2022/10/30 06:25:23;;;;;;;;;;;12.80;99.90;;;;;;4958424;29;20046;-67
2022/10/30 06:27:49;;;;;;;10.10;4.72;;;12.80;99.90;;;;;;4957934;29;20290;-67
2022/10/30 06:30:15;;;;;;;10.05;4.63;;;12.80;99.90;;;;;;4940457;29;20398;-67
2022/10/30 06:32:41;;;;;;;9.38;4.90;;;12.80;99.90;;;;;;4957817;29;20043;-67
2022/10/30 06:35:07;;;;;;;10.75;4.53;;;12.80;99.90;;;;;;4957667;29;20055;-68
2022/10/30 06:37:33;;;;;;;16.25;4.28;;;12.80;99.90;;;;;;4957805;29;20075;-66
2022/10/30 06:39:59;;;;;;;9.10;5.45;;;12.70;99.90;;;;;;4957749;29;20071;-66
2022/10/30 06:42:25;;;;;;;10.90;4.50;;;12.70;99.90;;;;;;4940493;29;20051;-66
2022/10/30 06:44:50;;;;;;;9.45;4.90;;;12.60;99.90;;;;;;4957631;29;20054;-66
2022/10/30 06:47:16;;;;;;;11.90;4.78;;;12.60;99.90;;;;;;4957659;29;20043;-66
2022/10/30 06:49:42;;;;;;;7.93;4.50;;;12.60;99.90;;;;;;4940058;29;20514;-66
2022/10/30 06:52:08;;;;;;;6.68;4.28;;;12.70;99.90;;;;;;4957532;29;20140;-66
2022/10/30 06:54:33;;;;;;;10.80;5.30;;;12.70;99.90;;;;;;4957499;29;20071;-66
2022/10/30 06:56:59;;;;;;;7.55;3.92;;;12.70;99.90;;;;;;4957449;29;20038;-66
2022/10/30 06:59:25;;;;;;;10.05;5.05;;;12.80;99.90;;;;;;4957404;29;20078;-66
2022/10/30 07:01:51;;;;;;;10.02;4.82;;;12.80;99.90;;;;;;4957317;29;20113;-66
2022/10/30 07:04:16;;;;;;;8.65;5.22;;;12.80;99.90;;;;;;4957280;29;20046;-70
2022/10/30 07:06:42;;;;;;;7.60;5.00;;;12.80;99.90;;;;;;4956947;29;20410;-67
2022/10/30 07:09:08;;;;;;;8.70;4.40;;;12.80;99.90;;;;;;4956887;29;20054;-67
2022/10/30 07:11:33;;;;;;;9.35;5.10;;;12.90;99.90;;;;;;4939719;29;20039;-69
2022/10/30 07:13:59;;;;;;;9.05;5.00;;;13.10;99.90;;;;;;4957153;29;20126;-67
2022/10/30 07:16:25;;;;;;;12.25;4.93;;;12.90;99.90;;;;;;4956797;29;20039;-66
2022/10/30 07:18:51;;;;;;;10.90;4.50;;;12.90;99.90;;;;;;4956693;29;20043;-66
2022/10/30 07:21:16;;;;;;;11.23;5.18;;;13.00;99.90;;;;;;4956679;29;20082;-66
2022/10/30 07:23:42;;;;;;;8.32;5.13;;;13.00;99.90;;;;;;4956951;29;20043;-67
2022/10/30 07:26:08;;;;;;;11.48;5.43;;;13.00;99.90;;;;;;4939655;29;20047;-66
2022/10/30 07:28:33;;;;;;;9.82;4.80;;;13.00;99.90;;;;;;4956221;28;20039;-67
2022/10/30 07:30:59;;;;;;;10.88;5.47;;;13.10;99.90;;;;;;4956488;29;20406;-67
2022/10/30 07:33:25;;;;;;;8.98;5.25;;;13.10;99.90;;;;;;4956715;29;20042;-67
2022/10/30 07:35:50;;;;;;;9.45;4.75;;;13.20;99.90;;;;;;4956267;29;20078;-67
2022/10/30 07:38:16;;;;;;;7.03;4.47;;;13.20;99.90;;;;;;4956530;29;20458;-68
2022/10/30 07:40:42;;;;;;;9.88;4.95;;;13.30;99.90;;;;;;4956365;29;20451;-68
2022/10/30 07:43:12;;;;;;;9.70;5.07;;;13.30;99.90;;;;;;4939078;29;20060;-67
2022/10/30 07:45:38;;;;;;;14.30;5.32;;;13.30;99.90;;;;;;4956487;29;20494;-66
2022/10/30 07:48:04;;;;;;;12.02;5.15;;;13.40;99.90;;;;;;4939374;29;20490;-67
2022/10/30 07:50:31;;;;;;;11.02;5.95;;;13.50;99.90;;;;;;4955981;29;20126;-67
2022/10/30 07:52:57;;;;;;;8.57;4.88;;;13.50;99.90;;;;;;4956274;29;20150;-67
2022/10/30 07:55:23;;;;;;;10.48;5.40;;;13.60;99.90;;;;;;4956318;29;20475;-67
2022/10/30 07:57:48;;;;;;;10.75;4.95;;;13.70;99.90;;;;;;4955921;29;20035;-67
2022/10/30 08:00:15;;;;;;;13.93;5.53;;;13.70;99.90;;;;;;4956255;29;20048;-67
2022/10/30 08:02:41;;;;;;;9.25;4.70;;;13.70;99.90;;;;;;4955913;29;20121;-67
2022/10/30 08:05:09;;;;;;;7.38;4.97;;;13.70;99.90;;;;;;4955812;29;20120;-69
2022/10/30 08:07:37;;;;;;;9.32;4.60;;;13.70;99.90;;;;;;4956095;29;20207;-68
2022/10/30 08:10:04;;;;;;;7.25;4.13;;;13.70;99.90;;;;;;4955609;29;20083;-67
2022/10/30 08:12:32;;;;;;;8.75;5.07;;;13.80;99.90;;;;;;4938574;29;20047;-67
2022/10/30 08:14:58;;;;;;;6.85;4.35;;;13.80;99.90;;;;;;4956008;29;20043;-67
2022/10/30 08:17:23;;;;;;;7.25;5.00;;;13.80;99.90;;;;;;4955570;29;20035;-67
2022/10/30 08:19:49;;;;;;;8.35;4.60;;;13.90;99.90;;;;;;4955749;29;20101;-67
2022/10/30 08:22:15;;;;;;;8.68;4.72;;;13.90;99.90;;;;;;4955682;29;20043;-68
2022/10/30 08:24:40;;;;;;;9.48;4.70;;;13.90;99.90;;;;;;4938305;29;20043;-68
2022/10/30 08:27:06;;;;;;;13.80;4.60;;;13.90;99.90;;;;;;4955722;29;20047;-67
2022/10/30 08:29:33;;;;;;;6.88;5.05;;;14.00;99.90;;;;;;4955664;29;20134;-68
2022/10/30 08:31:59;;;;;;;12.65;4.53;;;14.00;99.90;;;;;;4955660;29;20046;-67
2022/10/30 08:34:26;;;;;;;6.60;4.43;;;14.10;99.90;;;;;;4955449;29;20039;-67
2022/10/30 08:36:52;;;;;;;17.33;5.50;;;14.10;99.90;;;;;;4955628;29;20403;-67
2022/10/30 08:39:18;;;;;;;12.40;5.10;;;14.20;99.90;;;;;;4955091;28;20086;-67
2022/10/30 08:41:45;;;;;;;9.23;4.28;;;14.20;99.90;;;;;;4955305;29;20118;-67
2022/10/30 08:44:11;;;;;;;11.23;4.97;;;14.20;99.90;;;;;;4938172;29;20065;-67
2022/10/30 08:46:37;;;;;;;9.63;4.88;;;14.20;99.90;;;;;;4955552;29;20047;-67
2022/10/30 08:49:03;;;;;;;8.98;4.85;;;14.30;99.90;;;;;;4955498;29;20047;-67
2022/10/30 08:51:33;;;;;;;14.80;4.85;;;14.30;99.90;;;;;;4938534;29;20039;-69
2022/10/30 08:53:59;;;;;;;8.43;5.38;;;14.40;99.90;;;;;;4938081;29;20051;-67
2022/10/30 08:56:25;;;;;;;13.55;4.95;;;14.40;99.90;;;;;;4955438;29;20122;-69
2022/10/30 08:58:52;;;;;;;9.13;5.10;;;14.50;99.90;;;;;;4938154;29;20039;-67
2022/10/30 09:01:18;;;;;;;9.48;4.90;;;14.50;99.90;;;;;;4955136;29;20046;-67
2022/10/30 09:03:45;;;;;;;13.10;5.80;;;14.60;99.90;;;;;;4955371;29;20032;-67
2022/10/30 09:06:11;;;;;;;9.77;5.22;;;14.60;99.90;;;;;;4954939;29;20031;-67
2022/10/30 09:08:36;;;;;;;9.20;4.85;;;14.70;99.90;;;;;;4955262;29;20031;-67
2022/10/30 09:11:03;;;;;;;9.23;4.38;;;14.70;99.90;;;;;;4955314;29;20410;-68
2022/10/30 09:13:28;;;;;;;7.28;4.47;;;14.80;99.90;;;;;;4955292;29;20069;-67
2022/10/30 09:16:02;;;;;;;9.38;4.97;;;14.80;99.90;;;;;;4955235;29;20035;-66
2022/10/30 09:18:27;;;;;;;9.93;4.55;;;14.80;99.90;;;;;;4938080;29;20069;-67
2022/10/30 09:20:53;;;;;;;10.80;5.25;;;14.90;99.90;;;;;;4954936;29;20051;-67
2022/10/30 09:23:19;;;;;;;10.27;5.10;;;15.00;99.90;;;;;;4955092;29;20043;-68
2022/10/30 09:25:44;;;;;;;9.10;5.22;;;15.10;99.90;;;;;;4954754;29;20495;-67
2022/10/30 09:28:10;;;;;;;11.65;5.68;;;15.20;99.90;;;;;;4937613;29;20043;-67
2022/10/30 09:30:36;;;;;;;11.20;4.38;;;15.20;99.90;;;;;;4954968;29;20047;-67
2022/10/30 09:33:02;;;;;;;10.88;4.90;;;15.30;99.90;;;;;;4921825;29;20109;-67
2022/10/30 09:35:28;;;;;;;14.80;4.68;;;15.30;99.90;;;;;;4954622;28;20043;-66
2022/10/30 09:37:55;;;;;;;7.95;4.32;;;15.40;99.90;;;;;;4954659;29;20047;-67
2022/10/30 09:40:45;;;;;;;13.25;4.03;;;15.50;99.90;;;;;;4954970;29;20046;-67
2022/10/30 09:43:33;;;;;;;10.98;4.70;;;15.60;99.90;;;;;;4954710;29;20110;-67
2022/10/30 09:46:08;;;;;;;7.43;4.22;;;15.50;99.90;;;;;;4954717;29;20533;-67
2022/10/30 09:48:45;;;;;;;11.30;4.63;;;15.70;99.90;;;;;;4954689;29;20122;-67
2022/10/30 09:51:23;;;;;;;6.55;3.45;;;15.80;99.90;;;;;;4938213;29;20102;-67
2022/10/30 09:53:55;;;;;;;7.70;5.03;;;15.80;99.90;;;;;;4958245;29;20039;-67
2022/10/30 09:56:44;;;;;;;9.40;4.38;;;15.90;99.90;;;;;;4958531;29;20460;-67
2022/10/30 09:59:27;;;;;;;7.68;4.20;;;16.00;99.90;;;;;;4958180;29;20047;-68
2022/10/30 10:02:14;;;;;;;14.73;4.40;;;16.10;99.90;;;;;;4940918;29;20094;-67
2022/10/30 10:04:47;;;;;;;11.77;4.00;;;16.20;99.90;;;;;;4958306;29;20414;-67
2022/10/30 10:07:27;;;;;;;10.15;3.53;;;16.40;99.90;;;;;;4940924;29;20035;-67
2022/10/30 10:10:21;;;;;;;7.67;3.60;;;16.50;99.90;;;;;;4957880;29;20039;-67
2022/10/30 10:12:49;;;;;;;10.85;4.22;;;16.60;99.90;;;;;;4953956;29;20651;-67
2022/10/30 10:15:28;;;;;;;7.18;3.28;;;16.80;99.90;;;;;;4940809;29;20122;-67
2022/10/30 10:17:55;;;;;;;11.48;3.08;;;16.80;99.90;;;;;;4958035;29;20395;-67
2022/10/30 10:20:35;;;;;;;9.00;3.30;;;17.00;99.90;;;;;;4940732;29;20058;-66
2022/10/30 10:23:14;;;;;;;9.20;3.78;;;17.00;99.90;;;;;;4958098;29;20043;-68
2022/10/30 10:25:43;;;;;;;14.27;3.75;;;17.10;99.90;;;;;;4940579;29;20055;-68
2022/10/30 10:28:36;;;;;;;5.57;3.42;;;17.30;99.90;;;;;;4958008;29;20054;-66
2022/10/30 10:31:17;;;;;;;7.70;3.75;;;17.40;99.90;;;;;;4957956;29;20047;-67
2022/10/30 10:33:46;;;;;;;17.65;3.80;;;17.50;99.90;;;;;;4957891;29;20043;-67
2022/10/30 10:36:16;;;;;;;7.63;3.33;;;17.60;99.90;;;;;;4957533;29;20055;-67
2022/10/30 10:38:53;;;;;;;9.07;3.60;;;17.70;99.90;;;;;;4957472;29;20066;-67
2022/10/30 10:41:25;;;;;;;9.68;3.92;;;17.80;99.90;;;;;;4940345;29;20047;-68
2022/10/30 10:43:53;;;;;;;10.23;3.55;;;17.80;99.90;;;;;;4957403;29;20039;-66
2022/10/30 10:46:46;;;;;;;7.80;3.20;;;18.00;99.90;;;;;;4940185;29;20043;-67
2022/10/30 10:49:35;;;;;;;7.45;3.10;;;18.10;99.90;;;;;;4957552;29;20047;-67
2022/10/30 10:52:41;;;;;;;5.93;2.80;;;18.20;99.90;;;;;;4940333;29;20495;-67
2022/10/30 10:55:17;;;;;;;10.18;3.63;;;18.20;99.90;;;;;;4946684;29;20047;-67
2022/10/30 10:57:44;;;;;;;5.93;2.95;;;18.30;99.90;;;;;;4957546;29;20526;-68
2022/10/30 11:00:14;;;;;;;7.15;3.17;;;18.40;99.90;;;;;;4957357;29;20110;-67
2022/10/30 11:02:51;;;;;;;7.35;3.40;;;18.40;99.90;;;;;;4956622;28;20090;-67
2022/10/30 11:05:55;;;;;;;5.25;2.72;;;18.50;99.90;;;;;;4957283;29;20054;-67
2022/10/30 11:08:25;;;;;;;10.13;3.05;;;18.50;99.90;;;;;;4957246;29;20047;-67
2022/10/30 11:10:57;;;;;;;8.43;3.80;;;18.60;99.90;;;;;;4957129;29;20047;-67
2022/10/30 11:13:44;;;;;;;6.97;3.33;;;18.70;99.90;;;;;;4956855;29;20043;-67
2022/10/30 11:16:34;;;;;;;4.65;3.05;;;18.70;99.90;;;;;;4939636;29;20039;-67
2022/10/30 11:19:02;;;;;;;8.20;3.07;;;18.80;99.90;;;;;;4957088;29;20041;-67
2022/10/30 11:21:37;;;;;;;7.90;3.00;;;19.00;99.90;;;;;;4957048;29;20090;-67
2022/10/30 11:24:02;;;;;;;7.40;3.20;;;19.00;99.90;;;;;;4939473;29;20055;-67
2022/10/30 11:26:31;;;;;;;4.72;2.72;;;19.00;99.90;;;;;;4956640;29;20495;-67
2022/10/30 11:29:10;;;;;;;8.77;3.80;;;19.10;99.90;;;;;;4956841;29;20082;-67
2022/10/30 11:31:39;;;;;;;6.55;3.28;;;19.10;99.90;;;;;;4939395;29;20075;-67
2022/10/30 11:34:17;;;;;;;8.32;3.53;;;19.10;99.90;;;;;;4939574;29;20432;-67
2022/10/30 11:36:53;;;;;;;8.02;3.50;;;19.10;99.90;;;;;;4956470;29;20055;-67
2022/10/30 11:39:20;;;;;;;4.20;2.75;;;;;;;;;;4956656;29;20046;-67
2022/10/30 11:42:12;;;;;;;9.50;3.50;;;19.20;99.90;;;;;;4956607;29;20043;-67
2022/10/30 11:44:44;;;;;;;5.18;3.05;;;19.30;99.90;;;;;;4939139;29;20130;-67
2022/10/30 11:47:11;;;;;;;8.93;3.67;;;19.40;99.90;;;;;;4956429;29;20491;-67
2022/10/30 11:49:52;;;;;;;8.15;3.33;;;19.50;99.90;;;;;;4956468;29;20073;-67
2022/10/30 11:52:21;;;;;;;9.75;3.35;;;19.60;99.90;;;;;;4956526;29;20444;-67
2022/10/30 11:54:57;;;;;;;9.63;3.67;;;19.80;99.90;;;;;;4939297;29;20470;-67
2022/10/30 11:57:47;;;;;;;7.90;3.40;;;19.90;99.90;;;;;;4956370;29;20047;-67
2022/10/30 12:00:24;;;;;;;13.25;3.15;;;19.90;99.90;;;;;;4956113;29;20050;-67
2022/10/30 12:02:55;;;;;;;7.63;3.40;;;19.90;99.90;;;;;;4956277;29;20039;-67
2022/10/30 12:05:24;;;;;;;7.22;3.20;;;19.80;99.90;;;;;;4938752;29;20047;-67
2022/10/30 12:07:50;;;;;;;9.98;3.33;;;19.80;99.90;;;;;;4956231;29;20039;-67
2022/10/30 12:10:27;;;;;;;7.40;3.80;;;19.90;99.90;;;;;;4955791;29;20039;-68
2022/10/30 12:12:53;;;;;;;5.25;3.42;;;19.90;99.90;;;;;;4956077;29;20106;-68
2022/10/30 12:15:23;;;;;;;5.68;3.42;;;19.90;99.90;;;;;;4955106;28;20065;-68
2022/10/30 12:18:00;;;;;;;5.70;3.28;;;19.70;99.90;;;;;;4956043;29;20042;-67
2022/10/30 12:20:27;;;;;;;6.63;3.25;;;19.70;99.90;;;;;;4955731;29;20122;-68
2022/10/30 12:22:53;;;;;;;9.63;3.83;;;19.70;99.90;;;;;;4955922;29;20042;-68
2022/10/30 12:25:19;;;;;;;7.20;3.30;;;19.60;99.90;;;;;;4955957;29;20483;-68
2022/10/30 12:27:45;;;;;;;6.28;3.47;;;19.60;99.90;;;;;;4955850;29;20051;-68
2022/10/30 12:30:17;;;;;;;9.50;3.75;;;19.50;99.90;;;;;;4955795;29;20483;-67
2022/10/30 12:32:47;;;;;;;6.13;2.90;;;19.50;99.90;;;;;;4955837;29;20114;-66
2022/10/30 12:35:49;;;;;;;7.22;3.10;;;19.50;99.90;;;;;;4955487;28;20063;-68
2022/10/30 12:38:29;;;;;;;7.75;3.65;;;19.50;99.90;;;;;;4952670;29;20075;-68
2022/10/30 12:41:14;;;;;;;7.32;3.30;;;19.60;99.90;;;;;;4955669;29;20070;-67
2022/10/30 12:43:41;;;;;;;5.10;2.85;;;19.60;99.90;;;;;;4938449;29;20055;-67
2022/10/30 12:46:34;;;;;;;5.03;2.95;;;19.60;99.90;;;;;;4922313;29;20047;-67
2022/10/30 12:49:38;;;;;;;7.10;3.28;;;19.60;99.90;;;;;;4955500;29;20098;-67
2022/10/30 12:52:18;;;;;;;4.88;3.00;;;19.60;99.90;;;;;;4938701;29;20126;-70
2022/10/30 12:55:11;;;;;;;5.50;2.80;;;19.50;99.90;;;;;;4955503;29;20042;-69
2022/10/30 12:57:41;;;;;;;6.15;2.50;;;19.50;99.90;;;;;;4955541;29;20454;-68
2022/10/30 13:00:07;;;;;;;;;;;19.40;99.90;;;;;;4955849;29;20047;-68